Time;durP1;ratioP1;P1;durP2;ratioP2;P2;SDS_P1;SDS_P2;PMS_P1;PMS_P2;Temp;Humidity;BMP_temperature;BMP_pressure;BME280_temperature;BME280_humidity;BME280_pressure;Samples;Min_cycle;Max_cycle;Signal;HPM_P1;HPM_P2
2022/04/28 00:02:07;;;;;;;35.75;22.80;;;;;;;;;;7382099;19;20385;-75
2022/04/28 00:04:32;;;;;;;40.92;25.23;;;;;;;;;;7379337;19;20524;-74
2022/04/28 00:06:58;;;;;;;40.15;24.98;;;;;;;;;;7383833;19;20085;-75
2022/04/28 00:09:23;;;;;;;41.08;24.98;;;;;;;;;;7376504;19;20014;-74
2022/04/28 00:11:51;;;;;;;49.17;27.48;;;;;;;;;;7382661;19;20365;-74
2022/04/28 00:14:16;;;;;;;39.95;24.13;;;;;;;;;;7375530;19;20078;-75
2022/04/28 00:16:41;;;;;;;43.92;25.52;;;;;;;;;;7381339;19;20023;-77
2022/04/28 00:19:07;;;;;;;45.50;25.80;;;;;;;;;;7380030;19;20492;-75
2022/04/28 00:21:32;;;;;;;39.27;24.80;;;;;;;;;;7379785;19;20248;-77
2022/04/28 00:23:57;;;;;;;40.72;24.80;;;;;;;;;;7380528;19;20669;-74
2022/04/28 00:26:22;;;;;;;43.37;24.43;;;;;;;;;;7382137;19;20007;-76
2022/04/28 00:28:47;;;;;;;38.78;23.70;;;;;;;;;;7375330;19;20995;-75
2022/04/28 00:31:13;;;;;;;42.03;24.23;;;;;;;;;;7380317;19;20014;-76
2022/04/28 00:33:40;;;;;;;36.30;23.40;;;;;;;;;;7380204;19;20058;-76
2022/04/28 00:36:05;;;;;;;39.35;23.52;;;;;;;;;;7382313;19;20036;-75
2022/04/28 00:38:31;;;;;;;40.92;23.77;;;;;;;;;;7377620;19;20462;-75
2022/04/28 00:40:56;;;;;;;42.88;24.50;;;;;;;;;;7370508;19;20550;-74
2022/04/28 00:43:26;;;;;;;46.37;25.67;;;;;;;;;;7352957;19;20188;-77
2022/04/28 00:45:51;;;;;;;41.67;24.05;;;;;;;;;;7368883;19;20706;-74
2022/04/28 00:51:02;;;;;;;50.53;26.55;;;;;;;;;;7380653;19;20030;-74
2022/04/28 00:53:28;;;;;;;47.45;27.23;;;;;;;;;;7383174;19;20014;-75
2022/04/28 00:55:54;;;;;;;43.60;25.08;;;;;;;;;;7373183;19;20014;-74
2022/04/28 00:58:19;;;;;;;51.17;27.90;;;;;;;;;;7381900;19;20037;-75
2022/04/28 01:00:45;;;;;;;45.42;26.45;;;;;;;;;;7388054;19;20010;-73
2022/04/28 01:03:11;;;;;;;43.03;24.08;;;;;;;;;;7388899;19;20062;-74
2022/04/28 01:05:36;;;;;;;43.17;27.65;;;;;;;;;;7387712;19;20018;-76
2022/04/28 01:08:01;;;;;;;46.63;25.47;;;;;;;;;;7382614;19;20010;-75
2022/04/28 01:10:26;;;;;;;49.03;27.35;;;;;;;;;;7386778;19;20342;-75
2022/04/28 01:12:51;;;;;;;46.57;26.10;;;;;;;;;;7384188;19;20006;-74
2022/04/28 01:15:17;;;;;;;42.33;25.02;;;;;;;;;;7386500;19;20594;-74
2022/04/28 01:17:42;;;;;;;45.33;25.70;;;;;;;;;;7388263;19;19999;-75
2022/04/28 01:20:07;;;;;;;43.40;25.83;;;;;;;;;;7383066;19;20873;-75
2022/04/28 01:22:32;;;;;;;44.67;26.25;;;;;;;;;;7384110;19;20324;-73
2022/04/28 01:25:02;;;;;;;40.87;25.53;;;;;;;;;;7383071;19;20884;-73
2022/04/28 01:27:29;;;;;;;42.25;25.35;;;;;;;;;;7382411;19;20255;-76
2022/04/28 01:29:54;;;;;;;46.67;26.17;;;;;;;;;;7386660;19;20011;-75
2022/04/28 01:32:19;;;;;;;47.40;26.63;;;;;;;;;;7386192;19;20024;-75
2022/04/28 01:34:44;;;;;;;42.58;25.85;;;;;;;;;;7388034;19;20255;-74
2022/04/28 01:37:09;;;;;;;43.50;25.83;;;;;;;;;;7384015;19;19998;-75
2022/04/28 01:39:34;;;;;;;46.50;27.20;;;;;;;;;;7385550;19;20374;-74
2022/04/28 01:42:00;;;;;;;43.90;26.70;;;;;;;;;;7382457;19;20062;-77
2022/04/28 01:44:25;;;;;;;44.90;25.50;;;;;;;;;;7374534;19;20010;-74
2022/04/28 01:46:50;;;;;;;38.00;23.70;;;;;;;;;;7383531;19;20002;-75
2022/04/28 01:49:15;;;;;;;42.73;24.63;;;;;;;;;;7381500;19;20279;-74
2022/04/28 01:57:08;;;;;;;48.50;28.58;;;;;;;;;;7382728;19;20461;-74
2022/04/28 01:59:33;;;;;;;42.67;25.20;;;;;;;;;;7380767;19;20347;-75
2022/04/28 02:01:59;;;;;;;40.45;24.40;;;;;;;;;;7382670;19;20010;-73
2022/04/28 02:04:24;;;;;;;43.00;24.97;;;;;;;;;;7384720;19;20039;-74
2022/04/28 02:06:49;;;;;;;43.03;25.55;;;;;;;;;;7379624;19;20311;-78
2022/04/28 02:09:14;;;;;;;43.65;26.20;;;;;;;;;;7382810;19;20010;-75
2022/04/28 02:11:39;;;;;;;43.60;26.67;;;;;;;;;;7386040;19;20006;-73
2022/04/28 02:14:05;;;;;;;46.17;26.53;;;;;;;;;;7382487;19;20478;-75
2022/04/28 02:16:30;;;;;;;41.63;25.70;;;;;;;;;;7383319;19;20250;-75
2022/04/28 02:18:55;;;;;;;46.40;27.42;;;;;;;;;;7381539;19;20002;-75
2022/04/28 02:21:20;;;;;;;42.05;27.25;;;;;;;;;;7384592;19;20930;-73
2022/04/28 02:23:45;;;;;;;42.47;24.67;;;;;;;;;;7379851;19;20003;-76
2022/04/28 02:26:11;;;;;;;43.38;25.60;;;;;;;;;;7381832;19;20263;-74
2022/04/28 02:28:36;;;;;;;47.92;26.23;;;;;;;;;;7377792;19;20002;-76
2022/04/28 02:31:01;;;;;;;45.47;27.52;;;;;;;;;;7384630;19;20022;-73
2022/04/28 02:33:26;;;;;;;45.78;26.50;;;;;;;;;;7385453;19;19998;-74
2022/04/28 02:35:52;;;;;;;45.17;25.88;;;;;;;;;;7386099;19;20014;-76
2022/04/28 02:38:17;;;;;;;44.85;26.05;;;;;;;;;;7370898;19;20009;-73
2022/04/28 02:40:42;;;;;;;42.95;26.98;;;;;;;;;;7379141;19;20018;-74
2022/04/28 02:43:08;;;;;;;43.97;25.35;;;;;;;;;;7375209;19;20015;-73
2022/04/28 02:45:33;;;;;;;44.60;25.97;;;;;;;;;;7383049;19;20045;-75
2022/04/28 02:47:59;;;;;;;46.25;26.67;;;;;;;;;;7385465;19;20247;-75
2022/04/28 02:50:24;;;;;;;47.90;28.17;;;;;;;;;;7382575;19;20318;-75
2022/04/28 02:52:50;;;;;;;45.83;27.38;;;;;;;;;;7385633;19;20017;-74
2022/04/28 02:55:15;;;;;;;49.90;28.60;;;;;;;;;;7375722;19;20003;-76
2022/04/28 02:57:41;;;;;;;50.80;30.60;;;;;;;;;;7376750;19;20458;-76
2022/04/28 03:00:07;;;;;;;49.20;27.73;;;;;;;;;;7383920;19;20021;-73
2022/04/28 03:02:32;;;;;;;48.05;26.75;;;;;;;;;;7383380;19;20010;-74
2022/04/28 03:04:57;;;;;;;45.97;26.02;;;;;;;;;;7383584;19;20006;-74
2022/04/28 03:12:51;;;;;;;45.10;27.70;;;;;;;;;;7380968;19;20027;-74
2022/04/28 03:15:16;;;;;;;51.28;29.30;;;;;;;;;;7383789;19;20054;-74
2022/04/28 03:17:42;;;;;;;52.22;29.60;;;;;;;;;;7383881;19;20082;-75
2022/04/28 03:20:07;;;;;;;47.33;28.67;;;;;;;;;;7381780;19;19995;-75
2022/04/28 03:22:36;;;;;;;55.50;33.90;;;;;;;;;;7381313;19;20244;-74
2022/04/28 03:25:02;;;;;;;62.58;34.58;;;;;;;;;;7381995;19;20625;-74
2022/04/28 03:27:27;;;;;;;50.45;29.98;;;;;;;;;;7380185;19;20010;-75
2022/04/28 03:29:52;;;;;;;49.03;29.15;;;;;;;;;;7381004;19;20025;-74
2022/04/28 03:32:18;;;;;;;52.40;30.17;;;;;;;;;;7379580;19;20026;-74
2022/04/28 03:34:43;;;;;;;52.33;30.43;;;;;;;;;;7380259;19;20443;-74
2022/04/28 03:37:08;;;;;;;51.87;31.27;;;;;;;;;;7382084;19;20275;-74
2022/04/28 03:39:35;;;;;;;59.37;33.37;;;;;;;;;;7374183;19;20727;-75
2022/04/28 03:42:00;;;;;;;59.55;31.08;;;;;;;;;;7379628;19;20239;-74
2022/04/28 03:44:25;;;;;;;58.92;30.73;;;;;;;;;;7374325;19;20002;-76
2022/04/28 03:46:51;;;;;;;51.50;30.77;;;;;;;;;;7381081;19;20437;-75
2022/04/28 03:49:16;;;;;;;52.53;29.40;;;;;;;;;;7380006;19;20069;-76
2022/04/28 03:51:41;;;;;;;54.22;31.33;;;;;;;;;;7381554;19;20624;-74
2022/04/28 03:54:06;;;;;;;57.75;31.52;;;;;;;;;;7375502;19;20010;-75
2022/04/28 03:56:32;;;;;;;51.63;29.52;;;;;;;;;;7378919;19;20002;-74
2022/04/28 03:58:58;;;;;;;49.65;30.35;;;;;;;;;;7372993;19;20588;-75
2022/04/28 04:01:23;;;;;;;51.50;30.70;;;;;;;;;;7378426;19;20018;-74
2022/04/28 04:03:49;;;;;;;56.00;31.10;;;;;;;;;;7378973;19;20002;-75
2022/04/28 04:06:14;;;;;;;42.92;26.05;;;;;;;;;;7382960;19;20013;-74
2022/04/28 04:08:39;;;;;;;45.70;25.77;;;;;;;;;;7372286;19;20002;-74
2022/04/28 04:11:04;;;;;;;45.25;27.83;;;;;;;;;;7378119;19;20751;-74
2022/04/28 04:13:30;;;;;;;46.03;27.70;;;;;;;;;;7378443;19;20015;-76
2022/04/28 04:15:55;;;;;;;51.38;29.92;;;;;;;;;;7381596;19;20018;-75
2022/04/28 04:18:20;;;;;;;44.50;27.00;;;;;;;;;;7381511;19;20079;-76
2022/04/28 04:20:45;;;;;;;46.42;28.95;;;;;;;;;;7378211;19;20021;-77
2022/04/28 04:23:10;;;;;;;54.60;30.27;;;;;;;;;;7378054;19;19998;-77
2022/04/28 04:25:35;;;;;;;53.53;29.95;;;;;;;;;;7380878;19;20015;-76
2022/04/28 04:28:01;;;;;;;47.53;27.03;;;;;;;;;;7377656;19;20894;-73
2022/04/28 04:33:10;;;;;;;44.17;26.42;;;;;;;;;;7379789;19;20227;-76
2022/04/28 04:35:36;;;;;;;47.67;26.88;;;;;;;;;;7376312;19;20006;-74
2022/04/28 04:38:01;;;;;;;53.35;28.50;;;;;;;;;;7377347;19;20015;-74
2022/04/28 04:40:26;;;;;;;45.97;27.92;;;;;;;;;;7379407;19;20010;-73
2022/04/28 04:42:51;;;;;;;44.55;26.13;;;;;;;;;;7374809;19;20036;-75
2022/04/28 04:45:17;;;;;;;41.80;24.57;;;;;;;;;;7372268;19;20111;-77
2022/04/28 04:47:42;;;;;;;43.40;25.50;;;;;;;;;;7377024;19;20268;-76
2022/04/28 04:50:07;;;;;;;42.92;25.30;;;;;;;;;;7373326;19;20483;-75
2022/04/28 04:52:33;;;;;;;45.30;27.65;;;;;;;;;;7377041;19;20118;-75
2022/04/28 04:54:58;;;;;;;52.53;29.55;;;;;;;;;;7379337;19;20493;-76
2022/04/28 04:57:24;;;;;;;49.33;29.92;;;;;;;;;;7372696;19;20873;-78
2022/04/28 04:59:49;;;;;;;48.10;28.73;;;;;;;;;;7375836;19;20070;-75
2022/04/28 05:02:14;;;;;;;51.75;29.52;;;;;;;;;;7370318;19;20014;-76
2022/04/28 05:04:39;;;;;;;47.78;28.00;;;;;;;;;;7349192;19;20487;-75
2022/04/28 05:07:05;;;;;;;49.38;29.65;;;;;;;;;;7378059;19;20630;-79
2022/04/28 05:09:30;;;;;;;46.93;28.80;;;;;;;;;;7382491;19;20332;-79
2022/04/28 05:11:55;;;;;;;51.67;29.27;;;;;;;;;;7382404;19;20265;-79
2022/04/28 05:14:20;;;;;;;49.73;28.53;;;;;;;;;;7379322;19;20710;-79
2022/04/28 05:16:45;;;;;;;46.77;28.23;;;;;;;;;;7379843;19;20248;-79
2022/04/28 05:19:11;;;;;;;49.20;28.63;;;;;;;;;;7379087;19;20614;-79
2022/04/28 05:21:36;;;;;;;44.30;26.30;;;;;;;;;;7377900;19;20007;-79
2022/04/28 05:24:01;;;;;;;41.47;26.20;;;;;;;;;;7379666;19;20001;-79
2022/04/28 05:26:26;;;;;;;43.42;27.08;;;;;;;;;;7382593;19;20255;-79
2022/04/28 05:28:51;;;;;;;47.70;26.30;;;;;;;;;;7376755;19;20033;-79
2022/04/28 05:31:17;;;;;;;42.25;25.73;;;;;;;;;;7355171;19;20267;-80
2022/04/28 05:33:42;;;;;;;39.63;25.02;;;;;;;;;;7367693;19;19991;-79
2022/04/28 05:36:09;;;;;;;53.85;29.48;;;;;;;;;;7374037;19;20382;-79
2022/04/28 05:38:35;;;;;;;48.95;28.40;;;;;;;;;;7370860;19;20450;-79
2022/04/28 05:41:00;;;;;;;45.42;29.13;;;;;;;;;;7373543;19;20046;-78
2022/04/28 05:46:09;;;;;;;50.25;29.80;;;;;;;;;;7371138;19;20017;-78
2022/04/28 05:48:34;;;;;;;45.40;29.65;;;;;;;;;;7379284;19;20430;-79
2022/04/28 05:51:00;;;;;;;55.95;31.83;;;;;;;;;;7383111;19;20033;-78
2022/04/28 05:53:25;;;;;;;46.50;27.40;;;;;;;;;;7388168;19;20879;-79
2022/04/28 05:55:50;;;;;;;50.53;29.92;;;;;;;;;;7371835;19;20031;-79
2022/04/28 05:58:15;;;;;;;45.33;28.20;;;;;;;;;;7380439;19;19998;-79
2022/04/28 06:00:42;;;;;;;51.30;29.65;;;;;;;;;;7385867;19;20315;-79
2022/04/28 06:03:07;;;;;;;52.22;29.88;;;;;;;;;;7383417;19;20347;-79
2022/04/28 06:05:32;;;;;;;50.10;28.95;;;;;;;;;;7382387;19;20017;-79
2022/04/28 06:07:57;;;;;;;44.40;28.60;;;;;;;;;;7380920;19;20307;-79
2022/04/28 06:10:22;;;;;;;46.78;29.42;;;;;;;;;;7386384;19;20259;-80
2022/04/28 06:12:48;;;;;;;44.53;27.63;;;;;;;;;;7384176;19;19998;-79
2022/04/28 06:15:14;;;;;;;46.50;27.55;;;;;;;;;;7386705;19;20027;-79
2022/04/28 06:17:39;;;;;;;46.28;28.52;;;;;;;;;;7385233;19;20370;-79
2022/04/28 06:20:05;;;;;;;45.72;28.02;;;;;;;;;;7387371;19;20033;-79
2022/04/28 06:22:30;;;;;;;47.80;28.42;;;;;;;;;;7385870;19;19999;-79
2022/04/28 06:24:56;;;;;;;46.60;27.27;;;;;;;;;;7384941;19;20070;-79
2022/04/28 06:27:22;;;;;;;37.17;24.25;;;;;;;;;;7388419;19;20006;-80
2022/04/28 06:29:48;;;;;;;39.72;25.05;;;;;;;;;;7382766;19;20010;-79
2022/04/28 06:32:17;;;;;;;40.83;24.75;;;;;;;;;;7388467;19;20002;-79
2022/04/28 06:34:43;;;;;;;34.97;22.10;;;;;;;;;;7387607;19;20029;-78
2022/04/28 06:37:08;;;;;;;36.58;23.58;;;;;;;;;;7383499;19;20459;-79
2022/04/28 06:39:33;;;;;;;38.80;23.42;;;;;;;;;;7382159;19;20034;-79
2022/04/28 06:41:58;;;;;;;37.65;23.77;;;;;;;;;;7387229;19;20011;-79
2022/04/28 06:44:23;;;;;;;42.05;24.63;;;;;;;;;;7380711;19;20011;-79
2022/04/28 06:46:49;;;;;;;34.60;22.30;;;;;;;;;;7364918;19;20101;-79
2022/04/28 06:49:14;;;;;;;42.00;23.13;;;;;;;;;;7383028;19;20763;-79
2022/04/28 06:51:39;;;;;;;43.45;24.17;;;;;;;;;;7383168;19;20026;-79
2022/04/28 06:54:04;;;;;;;37.97;22.93;;;;;;;;;;7376782;19;19998;-79
2022/04/28 06:56:29;;;;;;;37.58;22.98;;;;;;;;;;7376031;19;20406;-79
2022/04/28 06:58:55;;;;;;;34.97;21.02;;;;;;;;;;7372655;19;20011;-80
2022/04/28 07:01:20;;;;;;;36.42;21.55;;;;;;;;;;7366386;19;20025;-79
2022/04/28 07:03:45;;;;;;;33.53;21.48;;;;;;;;;;7379774;19;20003;-77
2022/04/28 07:06:10;;;;;;;33.60;20.53;;;;;;;;;;7385989;19;20031;-77
2022/04/28 07:08:36;;;;;;;37.67;20.63;;;;;;;;;;7379308;19;20714;-78
2022/04/28 07:11:01;;;;;;;33.30;19.50;;;;;;;;;;7384447;19;20074;-77
2022/04/28 07:13:26;;;;;;;30.73;20.73;;;;;;;;;;7379859;19;20089;-79
2022/04/28 07:15:51;;;;;;;29.80;19.08;;;;;;;;;;7386221;19;20235;-78
2022/04/28 07:18:16;;;;;;;28.58;18.58;;;;;;;;;;7384913;19;20016;-78
2022/04/28 07:20:44;;;;;;;31.73;18.98;;;;;;;;;;7384855;19;20023;-78
2022/04/28 07:23:10;;;;;;;26.67;18.25;;;;;;;;;;7379038;19;20010;-78
2022/04/28 07:25:35;;;;;;;25.27;17.20;;;;;;;;;;7385571;19;20020;-77
2022/04/28 07:28:00;;;;;;;26.42;16.95;;;;;;;;;;7378023;19;19998;-79
2022/04/28 07:30:26;;;;;;;24.17;17.15;;;;;;;;;;7387087;19;20438;-78
2022/04/28 07:32:54;;;;;;;26.90;17.10;;;;;;;;;;7385387;19;20339;-77
2022/04/28 07:35:20;;;;;;;24.63;15.77;;;;;;;;;;7386247;19;20022;-77
2022/04/28 07:37:45;;;;;;;25.55;16.20;;;;;;;;;;7381816;19;20003;-78
2022/04/28 07:40:11;;;;;;;25.65;15.30;;;;;;;;;;7380898;19;20018;-79
2022/04/28 07:42:36;;;;;;;25.40;15.90;;;;;;;;;;7383962;19;20003;-77
2022/04/28 07:45:02;;;;;;;24.45;14.80;;;;;;;;;;7381738;19;20495;-77
2022/04/28 07:47:27;;;;;;;21.63;14.60;;;;;;;;;;7381564;19;20009;-79
2022/04/28 07:49:52;;;;;;;22.98;15.10;;;;;;;;;;7381397;19;20025;-77
2022/04/28 07:52:18;;;;;;;22.00;14.30;;;;;;;;;;7380732;19;20002;-77
2022/04/28 07:54:43;;;;;;;22.77;14.02;;;;;;;;;;7381174;19;20018;-77
2022/04/28 07:57:08;;;;;;;21.55;13.63;;;;;;;;;;7382124;19;20017;-78
2022/04/28 07:59:33;;;;;;;21.53;12.10;;;;;;;;;;7378977;19;20006;-78
2022/04/28 08:01:58;;;;;;;21.10;12.35;;;;;;;;;;7381507;19;20779;-77
2022/04/28 08:04:23;;;;;;;18.47;11.87;;;;;;;;;;7379978;19;20482;-78
2022/04/28 08:06:49;;;;;;;19.20;11.67;;;;;;;;;;7379961;19;20019;-76
2022/04/28 08:09:14;;;;;;;18.57;12.67;;;;;;;;;;7380141;19;20459;-77
2022/04/28 08:11:41;;;;;;;21.07;12.17;;;;;;;;;;7383588;19;20241;-78
2022/04/28 08:14:07;;;;;;;16.08;11.02;;;;;;;;;;7376111;19;20770;-77
2022/04/28 08:16:32;;;;;;;21.57;11.73;;;;;;;;;;7380109;19;19998;-78
2022/04/28 08:18:57;;;;;;;17.93;10.03;;;;;;;;;;7383564;19;20271;-77
2022/04/28 08:21:22;;;;;;;20.43;12.50;;;;;;;;;;7380158;19;20228;-78
2022/04/28 08:23:47;;;;;;;15.40;11.05;;;;;;;;;;7371838;19;20023;-76
2022/04/28 08:26:13;;;;;;;16.13;10.17;;;;;;;;;;7382853;19;20047;-78
2022/04/28 08:28:38;;;;;;;13.10;9.20;;;;;;;;;;7377954;19;20267;-77
2022/04/28 08:31:03;;;;;;;17.27;9.27;;;;;;;;;;7382181;19;20459;-77
2022/04/28 08:33:28;;;;;;;17.95;9.88;;;;;;;;;;7385135;19;20245;-77
2022/04/28 08:35:53;;;;;;;14.57;8.90;;;;;;;;;;7381596;19;20058;-78
2022/04/28 08:38:19;;;;;;;15.23;8.33;;;;;;;;;;7380274;19;20254;-78
2022/04/28 08:40:46;;;;;;;15.88;8.68;;;;;;;;;;7383085;19;20927;-78
2022/04/28 08:43:11;;;;;;;13.60;8.27;;;;;;;;;;7376598;19;20001;-78
2022/04/28 08:46:50;;;;;;;12.35;7.28;;;;;;;;;;7377641;19;20007;-77
2022/04/28 08:48:28;;;;;;;10.00;6.07;;;;;;;;;;7383080;19;20419;-77
2022/04/28 08:50:54;;;;;;;9.35;5.50;;;;;;;;;;7384795;19;20014;-77
2022/04/28 08:53:19;;;;;;;11.00;6.10;;;;;;;;;;7380903;19;20083;-78
2022/04/28 08:55:44;;;;;;;11.20;6.72;;;;;;;;;;7380908;19;20050;-76
2022/04/28 08:58:10;;;;;;;10.37;6.43;;;;;;;;;;7379527;19;20493;-78
2022/04/28 09:00:37;;;;;;;11.75;5.75;;;;;;;;;;7384599;19;20391;-77
2022/04/28 09:03:02;;;;;;;10.27;6.15;;;;;;;;;;7381900;19;20015;-77
2022/04/28 09:05:31;;;;;;;8.10;4.20;;;;;;;;;;7384050;19;20038;-77
2022/04/28 09:07:56;;;;;;;9.95;5.53;;;;;;;;;;7377898;19;20283;-78
2022/04/28 09:10:29;;;;;;;7.68;4.15;;;;;;;;;;7382793;19;20082;-77
2022/04/28 09:14:09;;;;;;;10.15;4.60;;;;;;;;;;7377075;19;20426;-77
2022/04/28 09:15:48;;;;;;;9.38;4.40;;;;;;;;;;7382261;19;20026;-77
2022/04/28 09:18:14;;;;;;;9.73;4.88;;;;;;;;;;7384688;19;20415;-77
2022/04/28 09:20:41;;;;;;;7.53;4.47;;;;;;;;;;7387110;19;20481;-77
2022/04/28 09:23:07;;;;;;;9.60;3.85;;;;;;;;;;7390621;19;20006;-77
2022/04/28 09:25:33;;;;;;;8.88;4.40;;;;;;;;;;7391873;19;20102;-78
2022/04/28 09:27:59;;;;;;;12.67;6.57;;;;;;;;;;7386419;19;20385;-77
2022/04/28 09:30:26;;;;;;;9.75;5.93;;;;;;;;;;7391151;19;20002;-77
2022/04/28 09:32:51;;;;;;;8.15;4.78;;;;;;;;;;7390379;19;20018;-77
2022/04/28 09:35:17;;;;;;;10.38;5.85;;;;;;;;;;7389635;19;20018;-76
2022/04/28 09:37:42;;;;;;;9.07;5.28;;;;;;;;;;7383873;19;20491;-76
2022/04/28 09:42:52;;;;;;;;;;;;;;;;;;7377638;19;20367;-78
2022/04/28 09:45:20;;;;;;;9.80;5.50;;;;;;;;;;7387675;19;19918;-76
2022/04/28 09:47:45;;;;;;;12.82;4.72;;;;;;;;;;7388010;19;20014;-77
2022/04/28 09:50:14;;;;;;;10.82;5.10;;;;;;;;;;7390745;19;19995;-78
2022/04/28 09:52:42;;;;;;;9.95;5.75;;;;;;;;;;7384437;19;20491;-76
2022/04/28 09:55:07;;;;;;;8.63;5.63;;;;;;;;;;7390594;19;20007;-77
2022/04/28 09:57:33;;;;;;;10.32;6.00;;;;;;;;;;7388030;19;20003;-77
2022/04/28 09:59:58;;;;;;;11.20;5.70;;;;;;;;;;7387310;19;20003;-77
2022/04/28 10:02:27;;;;;;;7.45;4.40;;;;;;;;;;7386919;19;20259;-77
2022/04/28 10:04:54;;;;;;;12.50;5.50;;;;;;;;;;7387755;19;20011;-77
2022/04/28 10:07:19;;;;;;;8.60;4.65;;;;;;;;;;7385616;19;20023;-77
2022/04/28 10:09:45;;;;;;;8.23;4.70;;;;;;;;;;7388252;19;20347;-77
2022/04/28 10:12:12;;;;;;;9.07;4.85;;;;;;;;;;7390342;19;20013;-76
2022/04/28 10:14:41;;;;;;;8.40;4.75;;;;;;;;;;7384288;19;20007;-76
2022/04/28 10:17:11;;;;;;;8.95;5.22;;;;;;;;;;7387604;19;20007;-79
2022/04/28 10:19:41;;;;;;;9.75;4.75;;;;;;;;;;7389365;19;20040;-78
2022/04/28 10:22:11;;;;;;;9.27;5.32;;;;;;;;;;7385837;19;20038;-77
2022/04/28 10:33:00;;;;;;;12.75;6.47;;;;;;;;;;7389070;19;20479;-79
2022/04/28 10:35:43;;;;;;;10.80;6.53;;;;;;;;;;7385116;19;20026;-79
2022/04/28 10:38:11;;;;;;;12.52;7.65;;;;;;;;;;7378290;19;20536;-78
2022/04/28 10:40:37;;;;;;;11.40;6.95;;;;;;;;;;7386854;19;20132;-77
2022/04/28 10:43:02;;;;;;;9.27;6.40;;;;;;;;;;7381857;19;19995;-77
2022/04/28 10:45:36;;;;;;;10.27;6.40;;;;;;;;;;7386254;19;20013;-77
2022/04/28 10:48:01;;;;;;;;;;;;;;;;;;7387228;19;19999;-79
2022/04/28 10:50:29;;;;;;;10.43;6.57;;;;;;;;;;7388238;19;19926;-77
2022/04/28 10:52:55;;;;;;;11.77;6.32;;;;;;;;;;7381948;19;20341;-77
2022/04/28 10:55:23;;;;;;;11.70;7.07;;;;;;;;;;7387845;19;20463;-77
2022/04/28 10:57:48;;;;;;;10.93;6.68;;;;;;;;;;7383412;19;20540;-78
2022/04/28 11:00:32;;;;;;;14.23;7.70;;;;;;;;;;7364721;19;20014;-77
2022/04/28 11:03:00;;;;;;;15.02;6.82;;;;;;;;;;7382642;19;20737;-78
2022/04/28 11:05:26;;;;;;;12.40;6.10;;;;;;;;;;7387067;19;20019;-77
2022/04/28 11:07:52;;;;;;;8.60;5.50;;;;;;;;;;7383066;19;19999;-77
2022/04/28 11:10:17;;;;;;;12.32;5.82;;;;;;;;;;7386406;19;20018;-78
2022/04/28 11:12:43;;;;;;;9.77;6.43;;;;;;;;;;7380335;19;20383;-78
2022/04/28 11:15:10;;;;;;;13.38;5.85;;;;;;;;;;7385076;19;20021;-77
2022/04/28 11:17:37;;;;;;;8.90;5.90;;;;;;;;;;7383873;19;20018;-77
2022/04/28 11:20:09;;;;;;;9.23;5.50;;;;;;;;;;7385068;19;20030;-78
2022/04/28 11:22:35;;;;;;;8.75;6.00;;;;;;;;;;7377062;19;20011;-78
2022/04/28 11:25:08;;;;;;;9.23;5.00;;;;;;;;;;7383882;19;20005;-77
2022/04/28 11:27:34;;;;;;;9.68;5.20;;;;;;;;;;7382912;19;20231;-79
2022/04/28 11:29:59;;;;;;;9.82;4.60;;;;;;;;;;7384565;19;20467;-78
2022/04/28 11:32:25;;;;;;;10.00;4.83;;;;;;;;;;7386167;19;20074;-79
